Details for TUI Airlines UK (Thomson) at EGBB




Go Back


Latest METAR
Local Time

EGBB 241350Z 09012KT 060V120 CAVOK 05/M04 Q1023

24/02/2018, 14:03:39

Description
Results
TUI Airlines UK (Thomson) Logo
Number of Pilots based at EGBB
1 Pilots Based here
Number of TUI Airlines UK (Thomson) Flights Departed from EGBB
0 Flights Departed
Number of TUI Airlines UK (Thomson) Flights Arrived at EGBB
1 Flights Arrived
Number of TUI Airlines UK (Thomson) Schedules Departing from EGBB
28 Schedules
Number of TUI Airlines UK (Thomson) Schedules Arriving at EGBB
28 Schedules
Number of TUI Airlines UK (Thomson) Schedules Departing from EGBB availible today
3 Schedules Today
Number of TUI Airlines UK (Thomson) Schedules Arriving at EGBB availible today
3 Schedules Today
Average Landing Rate at EGBB
-226 fpm
TUI Airlines UK (Thomson) Average Landing Rate at EGBB
-270 fpm
Total Fuel Purchased at EGBB by TUI Airlines UK (Thomson)
0.00 kgs / 0.00 lbs

Pilots Based at EGBB


Pilot ID
Pilot Name
Pilot Rank
No. of Flights
No. of Flying Hours
Dave Butler
17
17.48
Content